Anjou, Canada
Current Conditions -  °F | °C
As of 4:00 PM on Tuesday 21 Oct 2014 (Local Time) from CYHU Reporting Station
Light Rain Light Rain  
Wind Chill: 38°   Ceiling: 4700
Heat Index: 45°   Visibility: 9mi
Dew Point: 39°   Wind: 13mph
Humidity: 81%   Direction: 40°NE
Pressure: 30.06"   Gusts: 20mph
Location:  45.6°N, 73.53°W
Report Text: CYHU 212000Z AUTO 04011G17KT 9SM -RA FEW022 BKN047 OVC055 07/04 A3006 RMK SLP182
Loading
Personal Weather Stations






























Interactive Weather Map
Tropical Storm Tracking
New forecast layout! Learn more

10-Day Weather Forecast

Advertisements
Track Severe Weather on mobile